Terminal Aerodrome Forecast
Issued by NWS Brownsville, TX

Home | Current Version | Previous Version | Text Only | Print | Product List | Glossary On
Versions: 1 2 3 4 5 6 7 8 9 10 11 12 13 14 15 16 17 18 19 20
691
FTUS44 KBRO 131120
TAFBRO
TAF
KBRO 131120Z 1312/1412 13004KT P6SM SKC
     FM131400 15005KT P6SM FEW250
     FM131800 13011KT P6SM SKC
     FM140300 14007KT P6SM SKC
     FM140600 16007KT P6SM FEW250=

USA.gov is the U.S. government's official web portal to all federal, state and local government web resources and services.